createdAt,value
2023-03-12T00:02:52.903Z,5.3
2023-03-12T00:07:59.016Z,5.3
2023-03-12T00:13:05.248Z,5.3
2023-03-12T00:18:10.466Z,5.3
2023-03-12T00:23:16.669Z,5.4
2023-03-12T00:28:22.887Z,5.4
2023-03-12T00:33:29.084Z,5.4
2023-03-12T00:38:35.289Z,5.4
2023-03-12T00:43:41.490Z,5.4
2023-03-12T00:48:47.704Z,5.4
2023-03-12T00:53:53.907Z,5.5
2023-03-12T00:59:00.124Z,5.5
2023-03-12T01:04:06.424Z,5.5
2023-03-12T01:09:12.529Z,5.5
2023-03-12T01:14:18.737Z,5.5
2023-03-12T01:19:24.951Z,5.5
2023-03-12T01:24:31.149Z,5.5
2023-03-12T01:29:37.361Z,5.5
2023-03-12T01:34:43.569Z,5.5
2023-03-12T01:39:49.774Z,5.5
2023-03-12T01:44:55.977Z,5.5
2023-03-12T01:50:02.198Z,5.5
2023-03-12T01:55:08.397Z,5.5
2023-03-12T02:00:14.601Z,5.5
2023-03-12T02:05:19.858Z,5.5
2023-03-12T02:10:26.038Z,5.5
2023-03-12T02:15:32.264Z,5.5
2023-03-12T02:20:38.463Z,5.5
2023-03-12T02:25:44.681Z,5.5
2023-03-12T02:30:50.880Z,5.5
2023-03-12T02:35:57.117Z,5.5
2023-03-12T02:41:03.286Z,5.5
2023-03-12T02:46:09.535Z,5.5
2023-03-12T02:51:15.720Z,5.5
2023-03-12T02:56:21.913Z,5.5
2023-03-12T03:01:28.193Z,5.5
2023-03-12T03:06:34.334Z,5.5
2023-03-12T03:11:40.530Z,5.5
2023-03-12T03:16:46.735Z,5.5
2023-03-12T03:21:52.952Z,5.5
2023-03-12T03:26:59.149Z,5.5
2023-03-12T03:32:05.419Z,5.5
2023-03-12T03:37:11.576Z,5.5
2023-03-12T03:42:17.777Z,5.5
2023-03-12T03:47:23.981Z,5.5
2023-03-12T03:52:29.217Z,5.5
2023-03-12T03:57:35.421Z,5.5
2023-03-12T04:02:40.661Z,5.6
2023-03-12T04:07:46.869Z,5.6
2023-03-12T04:12:53.097Z,5.6
2023-03-12T04:17:59.320Z,5.6
2023-03-12T04:23:05.483Z,5.6
2023-03-12T04:28:11.694Z,5.6
2023-03-12T04:33:17.906Z,5.6
2023-03-12T04:38:24.119Z,5.6
2023-03-12T04:43:30.327Z,5.6
2023-03-12T04:48:36.536Z,5.6
2023-03-12T04:53:42.763Z,5.6
2023-03-12T04:58:48.950Z,5.6
2023-03-12T05:03:55.171Z,5.6
2023-03-12T05:09:01.471Z,5.6
2023-03-12T05:14:07.581Z,5.6
2023-03-12T05:19:13.783Z,5.6
2023-03-12T05:24:19.982Z,5.6
2023-03-12T05:29:26.186Z,5.6
2023-03-12T05:34:32.401Z,5.6
2023-03-12T05:39:38.607Z,5.6
2023-03-12T05:44:44.820Z,5.6
2023-03-12T05:49:50.062Z,5.6
2023-03-12T05:54:56.255Z,5.6
2023-03-12T06:00:01.588Z,5.7
2023-03-12T06:05:07.692Z,5.7
2023-03-12T06:10:13.895Z,5.7
2023-03-12T06:15:20.107Z,5.8
2023-03-12T06:20:26.313Z,5.8
2023-03-12T06:25:32.524Z,5.8
2023-03-12T06:30:38.724Z,5.8
2023-03-12T06:35:44.954Z,5.9
2023-03-12T06:40:51.135Z,5.9
2023-03-12T06:45:57.394Z,5.9
2023-03-12T06:51:03.562Z,6.0
2023-03-12T06:56:09.769Z,6.0
2023-03-12T07:01:16.054Z,6.1
2023-03-12T07:06:22.190Z,6.0
2023-03-12T07:11:28.394Z,6.1
2023-03-12T07:16:34.667Z,6.1
2023-03-12T07:21:40.804Z,6.0
2023-03-12T07:26:47.025Z,6.1
2023-03-12T07:31:53.219Z,6.1
2023-03-12T07:36:59.430Z,6.1
2023-03-12T07:42:05.732Z,6.1
2023-03-12T07:47:23.279Z,6.2
2023-03-12T07:52:17.109Z,6.2
2023-03-12T07:57:23.489Z,6.2
2023-03-12T08:02:28.650Z,6.2
2023-03-12T08:07:34.832Z,6.3
2023-03-12T08:12:40.941Z,6.3
2023-03-12T08:17:47.137Z,6.4
2023-03-12T08:22:53.355Z,6.4
2023-03-12T08:27:59.566Z,6.5
2023-03-12T08:33:05.812Z,6.5
2023-03-12T08:38:11.974Z,6.6
2023-03-12T08:43:18.169Z,6.6
2023-03-12T08:48:24.385Z,6.7
2023-03-12T08:53:30.596Z,6.8
2023-03-12T08:58:36.814Z,6.9
2023-03-12T09:03:43.014Z,7.0
2023-03-12T09:08:49.226Z,7.1
2023-03-12T09:14:22.470Z,7.1
2023-03-12T09:19:01.641Z,7.2
2023-03-12T09:24:07.842Z,7.3
2023-03-12T09:29:14.042Z,7.4
2023-03-12T09:34:20.260Z,7.5
2023-03-12T09:39:26.463Z,7.5
2023-03-12T09:44:31.678Z,7.7
2023-03-12T09:49:36.938Z,7.8
2023-03-12T09:54:43.697Z,7.9
2023-03-12T09:59:48.375Z,8.1
2023-03-12T10:04:59.806Z,8.2
2023-03-12T10:10:00.778Z,8.4
2023-03-12T10:15:06.981Z,8.6
2023-03-12T10:20:13.190Z,8.7
2023-03-12T10:25:19.398Z,8.9
2023-03-12T10:30:25.617Z,9.1
2023-03-12T10:35:31.996Z,9.3
2023-03-12T10:40:38.026Z,9.5
2023-03-12T10:45:44.231Z,9.7
2023-03-12T10:50:50.443Z,9.9
2023-03-12T10:55:56.650Z,10.1
2023-03-12T11:01:02.865Z,10.3
2023-03-12T11:06:09.124Z,10.5
2023-03-12T11:11:15.295Z,10.7
2023-03-12T11:16:21.523Z,10.8
2023-03-12T11:21:27.684Z,11.0
2023-03-12T11:26:33.888Z,11.1
2023-03-12T11:31:40.167Z,11.3
2023-03-12T11:36:46.313Z,11.4
2023-03-12T11:41:52.514Z,11.5
2023-03-12T11:46:57.825Z,11.6
2023-03-12T11:52:03.961Z,11.8
2023-03-12T11:57:09.206Z,11.9
2023-03-12T12:02:15.591Z,12.0
2023-03-12T12:07:21.617Z,12.1
2023-03-12T12:12:27.830Z,12.2
2023-03-12T12:17:34.038Z,12.3
2023-03-12T12:22:40.239Z,12.3
2023-03-12T12:27:46.446Z,12.4
2023-03-12T12:32:52.774Z,12.6
2023-03-12T12:37:58.859Z,12.8
2023-03-12T12:43:05.075Z,13.0
2023-03-12T12:48:11.290Z,13.1
2023-03-12T12:53:17.502Z,13.3
2023-03-12T12:58:23.716Z,13.4
2023-03-12T13:03:29.926Z,13.5
2023-03-12T13:08:36.148Z,13.5
2023-03-12T13:13:42.341Z,13.5
2023-03-12T13:18:48.551Z,13.5
2023-03-12T13:23:54.756Z,13.5
2023-03-12T13:29:11.921Z,13.5
2023-03-12T13:34:07.184Z,13.4
2023-03-12T13:39:13.504Z,13.4
2023-03-12T13:44:18.633Z,13.4
2023-03-12T13:49:24.857Z,13.3
2023-03-12T13:54:30.077Z,13.3
2023-03-12T13:59:36.305Z,13.3
2023-03-12T14:04:42.592Z,13.3
2023-03-12T14:09:48.711Z,13.3
2023-03-12T14:14:54.926Z,13.4
2023-03-12T14:20:01.154Z,13.5
2023-03-12T14:25:07.345Z,13.7
2023-03-12T14:30:13.574Z,13.8
2023-03-12T14:35:19.780Z,13.9
2023-03-12T14:40:25.989Z,13.9
2023-03-12T14:45:32.201Z,13.9
2023-03-12T14:50:38.409Z,14.0
2023-03-12T14:55:44.626Z,14.1
2023-03-12T15:00:50.840Z,14.2
2023-03-12T15:05:57.063Z,14.2
2023-03-12T15:11:03.306Z,14.3
2023-03-12T15:16:09.569Z,14.4
2023-03-12T15:21:15.695Z,14.4
2023-03-12T15:26:21.923Z,14.4
2023-03-12T15:31:28.652Z,14.4
2023-03-12T15:36:34.332Z,14.3
2023-03-12T15:41:39.584Z,14.3
2023-03-12T15:46:46.612Z,14.3
2023-03-12T15:51:52.006Z,14.3
2023-03-12T15:56:58.216Z,14.3
2023-03-12T16:02:04.505Z,14.3
2023-03-12T16:07:10.645Z,14.3
2023-03-12T16:12:16.866Z,14.2
2023-03-12T16:17:23.084Z,14.2
2023-03-12T16:22:29.286Z,14.1
2023-03-12T16:27:35.506Z,14.0
2023-03-12T16:32:41.764Z,14.0
2023-03-12T16:37:47.931Z,13.9
2023-03-12T16:42:54.150Z,13.9
2023-03-12T16:48:00.353Z,13.9
2023-03-12T16:53:06.564Z,13.8
2023-03-12T16:58:12.781Z,13.8
2023-03-12T17:03:18.994Z,13.7
2023-03-12T17:08:25.358Z,13.7
2023-03-12T17:13:31.424Z,13.6
2023-03-12T17:18:39.468Z,13.6
2023-03-12T17:23:43.844Z,13.6
2023-03-12T17:28:49.078Z,13.5
2023-03-12T17:33:55.300Z,13.4
2023-03-12T17:39:00.551Z,13.4
2023-03-12T17:44:06.746Z,13.4
2023-03-12T17:49:11.980Z,13.3
2023-03-12T17:54:18.200Z,13.3
2023-03-12T17:59:24.418Z,13.2
2023-03-12T18:04:30.730Z,13.2
2023-03-12T18:09:36.851Z,13.2
2023-03-12T18:14:43.050Z,13.1
2023-03-12T18:19:49.246Z,13.1
2023-03-12T18:24:55.452Z,13.1
2023-03-12T18:30:01.704Z,13.2
2023-03-12T18:35:07.879Z,13.2
2023-03-12T18:40:14.087Z,13.2
2023-03-12T18:45:20.307Z,13.2
2023-03-12T18:50:26.520Z,13.2
2023-03-12T18:55:32.714Z,13.2
2023-03-12T19:00:38.956Z,13.2
2023-03-12T19:05:45.131Z,13.2
2023-03-12T19:10:51.348Z,13.2
2023-03-12T19:15:57.659Z,13.2
2023-03-12T19:21:03.765Z,13.2
2023-03-12T19:26:09.974Z,13.1
2023-03-12T19:31:16.217Z,13.1
2023-03-12T19:36:21.431Z,13.1
2023-03-12T19:41:27.633Z,13.1
2023-03-12T19:46:33.841Z,13.1
2023-03-12T19:51:39.065Z,13.1
2023-03-12T19:56:45.286Z,13.1
2023-03-12T20:01:51.639Z,13.1
2023-03-12T20:06:57.694Z,13.1
2023-03-12T20:12:03.896Z,13.1
2023-03-12T20:17:10.130Z,13.1
2023-03-12T20:22:16.332Z,13.0
2023-03-12T20:27:22.549Z,13.0
2023-03-12T20:32:28.908Z,12.9
2023-03-12T20:37:34.951Z,12.9
2023-03-12T20:42:41.154Z,12.8
2023-03-12T20:47:47.359Z,12.8
2023-03-12T20:52:53.572Z,12.7
2023-03-12T20:57:59.793Z,12.6
2023-03-12T21:03:05.994Z,12.6
2023-03-12T21:08:12.205Z,12.5
2023-03-12T21:13:18.412Z,12.5
2023-03-12T21:18:24.621Z,12.4
2023-03-12T21:23:31.001Z,12.4
2023-03-12T21:28:37.031Z,12.3
2023-03-12T21:33:43.340Z,12.3
2023-03-12T21:38:48.481Z,12.2
2023-03-12T21:43:54.690Z,12.2
2023-03-12T21:48:59.958Z,12.2
2023-03-12T21:54:06.133Z,12.2
2023-03-12T21:59:12.364Z,12.2
2023-03-12T22:04:18.600Z,12.2
2023-03-12T22:09:24.754Z,12.3
2023-03-12T22:14:30.964Z,12.3
2023-03-12T22:19:37.169Z,12.3
2023-03-12T22:24:43.373Z,12.4
2023-03-12T22:29:49.582Z,12.4
2023-03-12T22:34:55.789Z,12.4
2023-03-12T22:40:01.995Z,12.4
2023-03-12T22:45:08.206Z,12.4
2023-03-12T22:50:14.414Z,12.5
2023-03-12T22:55:20.618Z,12.5
2023-03-12T23:00:26.824Z,12.5
2023-03-12T23:05:33.047Z,12.6
2023-03-12T23:10:39.240Z,12.6
2023-03-12T23:15:45.459Z,12.6
2023-03-12T23:20:51.658Z,12.6
2023-03-12T23:25:57.872Z,12.6
2023-03-12T23:31:04.150Z,12.6
2023-03-12T23:36:09.314Z,12.5
2023-03-12T23:41:15.530Z,12.5
2023-03-12T23:46:20.857Z,12.4
2023-03-12T23:51:26.965Z,12.4
2023-03-12T23:56:33.172Z,12.4
